sensor_id;sensor_type;location;lat;lon;timestamp;temperature;humidity
6379;DHT22;3222;48.858;10.128;2022-08-30T00:00:50;19.90;99.90
6379;DHT22;3222;48.858;10.128;2022-08-30T00:03:35;19.90;99.90
6379;DHT22;3222;48.858;10.128;2022-08-30T00:06:02;19.90;99.90
6379;DHT22;3222;48.858;10.128;2022-08-30T00:08:28;19.90;99.90
6379;DHT22;3222;48.858;10.128;2022-08-30T00:10:54;19.90;99.90
6379;DHT22;3222;48.858;10.128;2022-08-30T00:13:21;19.90;99.90
6379;DHT22;3222;48.858;10.128;2022-08-30T00:15:47;19.90;99.90
6379;DHT22;3222;48.858;10.128;2022-08-30T00:18:14;19.90;99.90
6379;DHT22;3222;48.858;10.128;2022-08-30T00:20:43;19.80;99.90
6379;DHT22;3222;48.858;10.128;2022-08-30T00:23:09;19.80;99.90
6379;DHT22;3222;48.858;10.128;2022-08-30T00:25:34;19.90;99.90
6379;DHT22;3222;48.858;10.128;2022-08-30T00:28:00;19.90;99.90
6379;DHT22;3222;48.858;10.128;2022-08-30T00:30:27;19.80;99.90
6379;DHT22;3222;48.858;10.128;2022-08-30T00:32:52;19.90;99.90
6379;DHT22;3222;48.858;10.128;2022-08-30T00:35:19;19.80;99.90
6379;DHT22;3222;48.858;10.128;2022-08-30T00:37:47;19.90;99.90
6379;DHT22;3222;48.858;10.128;2022-08-30T00:40:13;19.90;99.90
6379;DHT22;3222;48.858;10.128;2022-08-30T00:42:41;19.90;99.90
6379;DHT22;3222;48.858;10.128;2022-08-30T00:45:29;19.90;99.90
6379;DHT22;3222;48.858;10.128;2022-08-30T00:47:55;19.90;99.90
6379;DHT22;3222;48.858;10.128;2022-08-30T00:50:24;19.80;99.90
6379;DHT22;3222;48.858;10.128;2022-08-30T00:52:53;19.80;99.90
6379;DHT22;3222;48.858;10.128;2022-08-30T00:55:21;19.90;99.90
6379;DHT22;3222;48.858;10.128;2022-08-30T00:57:51;19.80;99.90
6379;DHT22;3222;48.858;10.128;2022-08-30T01:00:19;19.80;99.90
6379;DHT22;3222;48.858;10.128;2022-08-30T01:02:45;19.80;99.90
6379;DHT22;3222;48.858;10.128;2022-08-30T01:05:13;19.80;99.90
6379;DHT22;3222;48.858;10.128;2022-08-30T01:07:40;19.80;99.90
6379;DHT22;3222;48.858;10.128;2022-08-30T01:10:07;19.80;99.90
6379;DHT22;3222;48.858;10.128;2022-08-30T01:12:35;19.80;99.90
6379;DHT22;3222;48.858;10.128;2022-08-30T01:15:02;19.80;99.90
6379;DHT22;3222;48.858;10.128;2022-08-30T01:17:28;19.70;99.90
6379;DHT22;3222;48.858;10.128;2022-08-30T01:20:25;19.70;99.90
6379;DHT22;3222;48.858;10.128;2022-08-30T01:22:57;19.70;99.90
6379;DHT22;3222;48.858;10.128;2022-08-30T01:25:28;19.70;99.90
6379;DHT22;3222;48.858;10.128;2022-08-30T01:27:59;19.80;99.90
6379;DHT22;3222;48.858;10.128;2022-08-30T01:30:27;19.80;99.90
6379;DHT22;3222;48.858;10.128;2022-08-30T01:32:57;19.70;99.90
6379;DHT22;3222;48.858;10.128;2022-08-30T01:35:23;19.70;99.90
6379;DHT22;3222;48.858;10.128;2022-08-30T01:37:50;19.70;99.90
6379;DHT22;3222;48.858;10.128;2022-08-30T01:40:16;19.70;99.90
6379;DHT22;3222;48.858;10.128;2022-08-30T01:42:43;19.70;99.90
6379;DHT22;3222;48.858;10.128;2022-08-30T01:45:10;19.70;99.90
6379;DHT22;3222;48.858;10.128;2022-08-30T01:47:35;19.70;99.90
6379;DHT22;3222;48.858;10.128;2022-08-30T01:50:03;19.70;99.90
6379;DHT22;3222;48.858;10.128;2022-08-30T01:52:29;19.70;99.90
6379;DHT22;3222;48.858;10.128;2022-08-30T01:54:54;19.60;99.90
6379;DHT22;3222;48.858;10.128;2022-08-30T01:57:22;19.60;99.90
6379;DHT22;3222;48.858;10.128;2022-08-30T01:59:48;19.60;99.90
6379;DHT22;3222;48.858;10.128;2022-08-30T02:02:24;19.60;99.90
6379;DHT22;3222;48.858;10.128;2022-08-30T02:04:51;19.60;99.90
6379;DHT22;3222;48.858;10.128;2022-08-30T02:07:18;19.60;99.90
6379;DHT22;3222;48.858;10.128;2022-08-30T02:09:44;19.60;99.90
6379;DHT22;3222;48.858;10.128;2022-08-30T02:12:10;19.50;99.90
6379;DHT22;3222;48.858;10.128;2022-08-30T02:14:37;19.40;99.90
6379;DHT22;3222;48.858;10.128;2022-08-30T02:17:04;19.30;99.90
6379;DHT22;3222;48.858;10.128;2022-08-30T02:19:30;19.20;99.90
6379;DHT22;3222;48.858;10.128;2022-08-30T02:21:56;19.20;99.90
6379;DHT22;3222;48.858;10.128;2022-08-30T02:24:22;19.10;99.90
6379;DHT22;3222;48.858;10.128;2022-08-30T02:26:48;19.10;99.90
6379;DHT22;3222;48.858;10.128;2022-08-30T02:29:13;19.10;99.90
6379;DHT22;3222;48.858;10.128;2022-08-30T02:31:39;19.00;99.90
6379;DHT22;3222;48.858;10.128;2022-08-30T02:34:05;19.10;99.90
6379;DHT22;3222;48.858;10.128;2022-08-30T02:36:31;19.00;99.90
6379;DHT22;3222;48.858;10.128;2022-08-30T02:38:56;19.00;99.90
6379;DHT22;3222;48.858;10.128;2022-08-30T02:41:22;19.00;99.90
6379;DHT22;3222;48.858;10.128;2022-08-30T02:43:49;19.10;99.90
6379;DHT22;3222;48.858;10.128;2022-08-30T02:46:15;19.10;99.90
6379;DHT22;3222;48.858;10.128;2022-08-30T02:48:42;19.10;99.90
6379;DHT22;3222;48.858;10.128;2022-08-30T02:51:10;19.10;99.90
6379;DHT22;3222;48.858;10.128;2022-08-30T02:53:36;19.00;99.90
6379;DHT22;3222;48.858;10.128;2022-08-30T02:56:03;18.90;99.90
6379;DHT22;3222;48.858;10.128;2022-08-30T02:58:29;18.80;99.90
6379;DHT22;3222;48.858;10.128;2022-08-30T03:00:54;18.90;99.90
6379;DHT22;3222;48.858;10.128;2022-08-30T03:03:20;19.00;99.90
6379;DHT22;3222;48.858;10.128;2022-08-30T03:05:46;19.00;99.90
6379;DHT22;3222;48.858;10.128;2022-08-30T03:08:12;19.00;99.90
6379;DHT22;3222;48.858;10.128;2022-08-30T03:10:38;18.90;99.90
6379;DHT22;3222;48.858;10.128;2022-08-30T03:13:04;18.80;99.90
6379;DHT22;3222;48.858;10.128;2022-08-30T03:15:33;18.80;99.90
6379;DHT22;3222;48.858;10.128;2022-08-30T03:18:00;18.70;99.90
6379;DHT22;3222;48.858;10.128;2022-08-30T03:20:26;18.70;99.90
6379;DHT22;3222;48.858;10.128;2022-08-30T03:22:52;18.70;99.90
6379;DHT22;3222;48.858;10.128;2022-08-30T03:25:18;18.60;99.90
6379;DHT22;3222;48.858;10.128;2022-08-30T03:27:45;18.60;99.90
6379;DHT22;3222;48.858;10.128;2022-08-30T03:30:12;18.60;99.90
6379;DHT22;3222;48.858;10.128;2022-08-30T03:32:39;18.50;99.90
6379;DHT22;3222;48.858;10.128;2022-08-30T03:35:05;18.50;99.90
6379;DHT22;3222;48.858;10.128;2022-08-30T03:37:31;18.50;99.90
6379;DHT22;3222;48.858;10.128;2022-08-30T03:39:57;18.70;99.90
6379;DHT22;3222;48.858;10.128;2022-08-30T03:42:23;18.70;99.90
6379;DHT22;3222;48.858;10.128;2022-08-30T03:44:49;18.60;99.90
6379;DHT22;3222;48.858;10.128;2022-08-30T03:47:15;18.50;99.90
6379;DHT22;3222;48.858;10.128;2022-08-30T03:49:41;18.40;99.90
6379;DHT22;3222;48.858;10.128;2022-08-30T03:52:07;18.50;99.90
6379;DHT22;3222;48.858;10.128;2022-08-30T03:54:33;18.40;99.90
6379;DHT22;3222;48.858;10.128;2022-08-30T03:56:58;18.40;99.90
6379;DHT22;3222;48.858;10.128;2022-08-30T03:59:24;18.40;99.90
6379;DHT22;3222;48.858;10.128;2022-08-30T04:01:50;18.40;99.90
6379;DHT22;3222;48.858;10.128;2022-08-30T04:04:16;18.30;99.90
6379;DHT22;3222;48.858;10.128;2022-08-30T04:06:42;18.30;99.90
6379;DHT22;3222;48.858;10.128;2022-08-30T04:09:08;18.30;99.90
6379;DHT22;3222;48.858;10.128;2022-08-30T04:11:34;18.30;99.90
6379;DHT22;3222;48.858;10.128;2022-08-30T04:14:00;18.30;99.90
6379;DHT22;3222;48.858;10.128;2022-08-30T04:16:26;18.20;99.90
6379;DHT22;3222;48.858;10.128;2022-08-30T04:18:52;18.20;99.90
6379;DHT22;3222;48.858;10.128;2022-08-30T04:21:18;18.20;99.90
6379;DHT22;3222;48.858;10.128;2022-08-30T04:23:44;18.20;99.90
6379;DHT22;3222;48.858;10.128;2022-08-30T04:26:12;18.20;99.90
6379;DHT22;3222;48.858;10.128;2022-08-30T04:28:38;18.30;99.90
6379;DHT22;3222;48.858;10.128;2022-08-30T04:31:14;18.40;99.90
6379;DHT22;3222;48.858;10.128;2022-08-30T04:33:40;18.30;99.90
6379;DHT22;3222;48.858;10.128;2022-08-30T04:36:08;18.20;99.90
6379;DHT22;3222;48.858;10.128;2022-08-30T04:38:36;18.20;99.90
6379;DHT22;3222;48.858;10.128;2022-08-30T04:41:09;18.20;99.90
6379;DHT22;3222;48.858;10.128;2022-08-30T04:43:36;18.10;99.90
6379;DHT22;3222;48.858;10.128;2022-08-30T04:46:05;18.10;99.90
6379;DHT22;3222;48.858;10.128;2022-08-30T04:48:31;18.10;99.90
6379;DHT22;3222;48.858;10.128;2022-08-30T04:50:56;18.00;99.90
6379;DHT22;3222;48.858;10.128;2022-08-30T04:53:22;18.00;99.90
6379;DHT22;3222;48.858;10.128;2022-08-30T04:55:48;18.10;99.90
6379;DHT22;3222;48.858;10.128;2022-08-30T04:58:14;18.10;99.90
6379;DHT22;3222;48.858;10.128;2022-08-30T05:00:42;18.00;99.90
6379;DHT22;3222;48.858;10.128;2022-08-30T05:03:08;18.00;99.90
6379;DHT22;3222;48.858;10.128;2022-08-30T05:05:34;18.00;99.90
6379;DHT22;3222;48.858;10.128;2022-08-30T05:08:11;18.00;99.90
6379;DHT22;3222;48.858;10.128;2022-08-30T05:10:39;17.90;99.90
6379;DHT22;3222;48.858;10.128;2022-08-30T05:13:05;17.90;99.90
6379;DHT22;3222;48.858;10.128;2022-08-30T05:15:31;17.90;99.90
6379;DHT22;3222;48.858;10.128;2022-08-30T05:17:57;17.90;99.90
6379;DHT22;3222;48.858;10.128;2022-08-30T05:20:23;17.90;99.90
6379;DHT22;3222;48.858;10.128;2022-08-30T05:22:48;17.90;99.90
6379;DHT22;3222;48.858;10.128;2022-08-30T05:25:17;17.90;99.90
6379;DHT22;3222;48.858;10.128;2022-08-30T05:27:43;17.90;99.90
6379;DHT22;3222;48.858;10.128;2022-08-30T05:30:10;17.90;99.90
6379;DHT22;3222;48.858;10.128;2022-08-30T05:32:35;17.90;99.90
6379;DHT22;3222;48.858;10.128;2022-08-30T05:35:04;17.90;99.90
6379;DHT22;3222;48.858;10.128;2022-08-30T05:37:31;17.90;99.90
6379;DHT22;3222;48.858;10.128;2022-08-30T05:39:56;17.90;99.90
6379;DHT22;3222;48.858;10.128;2022-08-30T05:42:22;17.90;99.90
6379;DHT22;3222;48.858;10.128;2022-08-30T05:44:52;17.90;99.90
6379;DHT22;3222;48.858;10.128;2022-08-30T05:47:19;17.90;99.90
6379;DHT22;3222;48.858;10.128;2022-08-30T05:49:46;17.90;99.90
6379;DHT22;3222;48.858;10.128;2022-08-30T05:52:12;18.00;99.90
6379;DHT22;3222;48.858;10.128;2022-08-30T05:54:40;18.00;99.90
6379;DHT22;3222;48.858;10.128;2022-08-30T05:57:06;18.00;99.90
6379;DHT22;3222;48.858;10.128;2022-08-30T05:59:32;18.00;99.90
6379;DHT22;3222;48.858;10.128;2022-08-30T06:01:58;18.00;99.90
6379;DHT22;3222;48.858;10.128;2022-08-30T06:04:25;18.10;99.90
6379;DHT22;3222;48.858;10.128;2022-08-30T06:06:51;18.20;99.90
6379;DHT22;3222;48.858;10.128;2022-08-30T06:09:17;18.30;99.90
6379;DHT22;3222;48.858;10.128;2022-08-30T06:11:43;18.20;99.90
6379;DHT22;3222;48.858;10.128;2022-08-30T06:14:09;18.20;99.90
6379;DHT22;3222;48.858;10.128;2022-08-30T06:16:37;18.10;99.90
6379;DHT22;3222;48.858;10.128;2022-08-30T06:19:04;18.10;99.90
6379;DHT22;3222;48.858;10.128;2022-08-30T06:21:32;18.10;99.90
6379;DHT22;3222;48.858;10.128;2022-08-30T06:24:03;18.10;99.90
6379;DHT22;3222;48.858;10.128;2022-08-30T06:26:29;18.10;99.90
6379;DHT22;3222;48.858;10.128;2022-08-30T06:28:56;18.10;99.90
6379;DHT22;3222;48.858;10.128;2022-08-30T06:31:23;18.30;99.90
6379;DHT22;3222;48.858;10.128;2022-08-30T06:33:50;18.30;99.90
6379;DHT22;3222;48.858;10.128;2022-08-30T06:36:19;18.30;99.90
6379;DHT22;3222;48.858;10.128;2022-08-30T06:38:47;18.20;99.90
6379;DHT22;3222;48.858;10.128;2022-08-30T06:41:17;18.30;99.90
6379;DHT22;3222;48.858;10.128;2022-08-30T06:43:44;18.30;99.90
6379;DHT22;3222;48.858;10.128;2022-08-30T06:46:12;18.50;99.90
6379;DHT22;3222;48.858;10.128;2022-08-30T06:48:38;18.50;99.90
6379;DHT22;3222;48.858;10.128;2022-08-30T06:51:04;18.60;99.90
6379;DHT22;3222;48.858;10.128;2022-08-30T06:53:30;18.70;99.90
6379;DHT22;3222;48.858;10.128;2022-08-30T06:56:05;18.70;99.90
6379;DHT22;3222;48.858;10.128;2022-08-30T06:58:32;18.80;99.90
6379;DHT22;3222;48.858;10.128;2022-08-30T07:00:58;18.90;99.90
6379;DHT22;3222;48.858;10.128;2022-08-30T07:03:24;19.00;99.90
6379;DHT22;3222;48.858;10.128;2022-08-30T07:05:52;19.10;99.90
6379;DHT22;3222;48.858;10.128;2022-08-30T07:08:18;19.10;99.90
6379;DHT22;3222;48.858;10.128;2022-08-30T07:10:45;19.00;99.90
6379;DHT22;3222;48.858;10.128;2022-08-30T07:13:12;19.00;99.90
6379;DHT22;3222;48.858;10.128;2022-08-30T07:15:41;19.10;99.90
6379;DHT22;3222;48.858;10.128;2022-08-30T07:18:08;19.20;99.90
6379;DHT22;3222;48.858;10.128;2022-08-30T07:20:53;19.20;99.90
6379;DHT22;3222;48.858;10.128;2022-08-30T07:23:18;19.30;99.90
6379;DHT22;3222;48.858;10.128;2022-08-30T07:25:44;19.40;99.90
6379;DHT22;3222;48.858;10.128;2022-08-30T07:28:11;19.50;99.90
6379;DHT22;3222;48.858;10.128;2022-08-30T07:30:37;19.50;99.90
6379;DHT22;3222;48.858;10.128;2022-08-30T07:33:05;19.50;99.90
6379;DHT22;3222;48.858;10.128;2022-08-30T07:35:31;19.60;99.90
6379;DHT22;3222;48.858;10.128;2022-08-30T07:37:57;19.70;99.90
6379;DHT22;3222;48.858;10.128;2022-08-30T07:40:23;19.70;99.90
6379;DHT22;3222;48.858;10.128;2022-08-30T07:42:49;19.70;99.90
6379;DHT22;3222;48.858;10.128;2022-08-30T07:45:15;19.80;99.90
6379;DHT22;3222;48.858;10.128;2022-08-30T07:47:41;19.80;99.90
6379;DHT22;3222;48.858;10.128;2022-08-30T07:50:07;20.00;99.90
6379;DHT22;3222;48.858;10.128;2022-08-30T07:52:34;20.10;99.90
6379;DHT22;3222;48.858;10.128;2022-08-30T07:55:00;20.30;99.90
6379;DHT22;3222;48.858;10.128;2022-08-30T07:57:26;20.30;99.90
6379;DHT22;3222;48.858;10.128;2022-08-30T07:59:53;20.30;99.90
6379;DHT22;3222;48.858;10.128;2022-08-30T08:02:19;20.50;99.90
6379;DHT22;3222;48.858;10.128;2022-08-30T08:04:45;20.50;99.90
6379;DHT22;3222;48.858;10.128;2022-08-30T08:07:11;20.50;99.90
6379;DHT22;3222;48.858;10.128;2022-08-30T08:09:37;20.50;99.90
6379;DHT22;3222;48.858;10.128;2022-08-30T08:12:05;20.60;99.90
6379;DHT22;3222;48.858;10.128;2022-08-30T08:14:32;20.70;99.90
6379;DHT22;3222;48.858;10.128;2022-08-30T08:16:58;20.70;99.90
6379;DHT22;3222;48.858;10.128;2022-08-30T08:19:24;20.80;99.90
6379;DHT22;3222;48.858;10.128;2022-08-30T08:21:50;20.80;99.90
6379;DHT22;3222;48.858;10.128;2022-08-30T08:24:21;20.80;99.90
6379;DHT22;3222;48.858;10.128;2022-08-30T08:26:47;20.80;99.90
6379;DHT22;3222;48.858;10.128;2022-08-30T08:29:13;21.00;99.90
6379;DHT22;3222;48.858;10.128;2022-08-30T08:31:39;21.00;99.90
6379;DHT22;3222;48.858;10.128;2022-08-30T08:34:07;21.00;99.90
6379;DHT22;3222;48.858;10.128;2022-08-30T08:36:34;21.10;99.90
6379;DHT22;3222;48.858;10.128;2022-08-30T08:39:00;21.10;99.90
6379;DHT22;3222;48.858;10.128;2022-08-30T08:43:52;21.30;99.90
6379;DHT22;3222;48.858;10.128;2022-08-30T08:46:29;21.30;99.90
6379;DHT22;3222;48.858;10.128;2022-08-30T08:49:01;21.30;99.90
6379;DHT22;3222;48.858;10.128;2022-08-30T08:51:33;21.30;99.90
6379;DHT22;3222;48.858;10.128;2022-08-30T08:54:29;21.40;99.90
6379;DHT22;3222;48.858;10.128;2022-08-30T08:56:58;21.50;99.90
6379;DHT22;3222;48.858;10.128;2022-08-30T08:59:24;21.50;99.90
6379;DHT22;3222;48.858;10.128;2022-08-30T09:01:49;21.60;99.90
6379;DHT22;3222;48.858;10.128;2022-08-30T09:04:23;21.60;99.90
6379;DHT22;3222;48.858;10.128;2022-08-30T09:06:57;21.60;99.90
6379;DHT22;3222;48.858;10.128;2022-08-30T09:09:34;21.70;99.90
6379;DHT22;3222;48.858;10.128;2022-08-30T09:12:02;21.80;99.90
6379;DHT22;3222;48.858;10.128;2022-08-30T09:14:33;21.80;99.90
6379;DHT22;3222;48.858;10.128;2022-08-30T09:17:19;21.80;99.90
6379;DHT22;3222;48.858;10.128;2022-08-30T09:22:36;22.10;99.90
6379;DHT22;3222;48.858;10.128;2022-08-30T09:25:17;22.10;99.90
6379;DHT22;3222;48.858;10.128;2022-08-30T09:27:46;22.10;99.90
6379;DHT22;3222;48.858;10.128;2022-08-30T09:30:22;22.20;99.90
6379;DHT22;3222;48.858;10.128;2022-08-30T09:32:50;22.20;99.90
6379;DHT22;3222;48.858;10.128;2022-08-30T09:35:35;22.20;99.90
6379;DHT22;3222;48.858;10.128;2022-08-30T09:38:10;22.30;99.90
6379;DHT22;3222;48.858;10.128;2022-08-30T09:40:39;22.50;99.90
6379;DHT22;3222;48.858;10.128;2022-08-30T09:45:38;22.40;99.90
6379;DHT22;3222;48.858;10.128;2022-08-30T09:48:31;22.50;99.90
6379;DHT22;3222;48.858;10.128;2022-08-30T09:51:21;22.60;99.90
6379;DHT22;3222;48.858;10.128;2022-08-30T09:53:59;22.50;99.90
6379;DHT22;3222;48.858;10.128;2022-08-30T09:56:51;22.60;99.90
6379;DHT22;3222;48.858;10.128;2022-08-30T10:11:31;23.00;99.90
6379;DHT22;3222;48.858;10.128;2022-08-30T10:14:24;23.00;99.90
6379;DHT22;3222;48.858;10.128;2022-08-30T10:22:44;23.00;99.90
6379;DHT22;3222;48.858;10.128;2022-08-30T10:25:15;23.10;99.90
6379;DHT22;3222;48.858;10.128;2022-08-30T10:27:46;22.90;99.90
6379;DHT22;3222;48.858;10.128;2022-08-30T10:30:14;22.90;99.90
6379;DHT22;3222;48.858;10.128;2022-08-30T10:32:50;22.80;99.90
6379;DHT22;3222;48.858;10.128;2022-08-30T10:35:23;22.90;99.90
6379;DHT22;3222;48.858;10.128;2022-08-30T10:38:14;22.90;99.90
6379;DHT22;3222;48.858;10.128;2022-08-30T10:40:46;22.90;99.90
6379;DHT22;3222;48.858;10.128;2022-08-30T10:46:16;22.90;99.90
6379;DHT22;3222;48.858;10.128;2022-08-30T10:48:43;23.00;99.90
6379;DHT22;3222;48.858;10.128;2022-08-30T10:54:09;22.90;99.90
6379;DHT22;3222;48.858;10.128;2022-08-30T10:56:39;22.80;99.90
6379;DHT22;3222;48.858;10.128;2022-08-30T10:59:07;22.80;99.90
6379;DHT22;3222;48.858;10.128;2022-08-30T11:02:02;22.90;99.90
6379;DHT22;3222;48.858;10.128;2022-08-30T11:04:47;22.90;99.90
6379;DHT22;3222;48.858;10.128;2022-08-30T11:10:25;22.80;99.90
6379;DHT22;3222;48.858;10.128;2022-08-30T11:13:15;22.70;99.90
6379;DHT22;3222;48.858;10.128;2022-08-30T11:16:07;22.60;99.90
6379;DHT22;3222;48.858;10.128;2022-08-30T11:19:19;22.80;99.90
6379;DHT22;3222;48.858;10.128;2022-08-30T11:21:45;22.80;99.90
6379;DHT22;3222;48.858;10.128;2022-08-30T11:24:22;23.10;99.90
6379;DHT22;3222;48.858;10.128;2022-08-30T11:26:52;23.20;99.90
6379;DHT22;3222;48.858;10.128;2022-08-30T11:37:29;23.50;99.90
6379;DHT22;3222;48.858;10.128;2022-08-30T11:39:59;23.50;99.90
6379;DHT22;3222;48.858;10.128;2022-08-30T11:42:29;23.50;99.90
6379;DHT22;3222;48.858;10.128;2022-08-30T11:48:00;23.70;99.90
6379;DHT22;3222;48.858;10.128;2022-08-30T11:50:40;23.70;99.90
6379;DHT22;3222;48.858;10.128;2022-08-30T11:53:21;23.80;99.90
6379;DHT22;3222;48.858;10.128;2022-08-30T11:58:48;24.00;99.90
6379;DHT22;3222;48.858;10.128;2022-08-30T12:01:19;24.00;99.90
6379;DHT22;3222;48.858;10.128;2022-08-30T12:11:58;24.10;99.90
6379;DHT22;3222;48.858;10.128;2022-08-30T12:17:09;24.10;99.90
6379;DHT22;3222;48.858;10.128;2022-08-30T12:19:56;24.10;99.90
6379;DHT22;3222;48.858;10.128;2022-08-30T12:22:25;24.30;99.90
6379;DHT22;3222;48.858;10.128;2022-08-30T12:24:55;24.40;99.90
6379;DHT22;3222;48.858;10.128;2022-08-30T12:30:01;24.20;99.90
6379;DHT22;3222;48.858;10.128;2022-08-30T12:32:28;24.30;99.90
6379;DHT22;3222;48.858;10.128;2022-08-30T12:34:57;24.30;99.90
6379;DHT22;3222;48.858;10.128;2022-08-30T12:37:30;24.30;99.90
6379;DHT22;3222;48.858;10.128;2022-08-30T12:42:35;24.20;99.90
6379;DHT22;3222;48.858;10.128;2022-08-30T12:45:06;24.10;99.90
6379;DHT22;3222;48.858;10.128;2022-08-30T12:50:13;24.00;99.90
6379;DHT22;3222;48.858;10.128;2022-08-30T12:52:43;24.00;99.90
6379;DHT22;3222;48.858;10.128;2022-08-30T12:57:53;23.80;99.90
6379;DHT22;3222;48.858;10.128;2022-08-30T13:00:32;23.90;99.90
6379;DHT22;3222;48.858;10.128;2022-08-30T13:03:01;23.90;99.90
6379;DHT22;3222;48.858;10.128;2022-08-30T13:10:50;24.00;99.90
6379;DHT22;3222;48.858;10.128;2022-08-30T13:15:52;24.20;99.90
6379;DHT22;3222;48.858;10.128;2022-08-30T13:18:28;24.30;99.90
6379;DHT22;3222;48.858;10.128;2022-08-30T13:23:50;24.30;99.90
6379;DHT22;3222;48.858;10.128;2022-08-30T13:26:17;24.30;99.90
6379;DHT22;3222;48.858;10.128;2022-08-30T13:28:51;24.40;99.90
6379;DHT22;3222;48.858;10.128;2022-08-30T13:31:18;24.30;99.90
6379;DHT22;3222;48.858;10.128;2022-08-30T13:33:43;24.10;99.90
6379;DHT22;3222;48.858;10.128;2022-08-30T13:36:12;24.10;99.90
6379;DHT22;3222;48.858;10.128;2022-08-30T13:38:38;24.00;99.90
6379;DHT22;3222;48.858;10.128;2022-08-30T13:41:04;24.00;99.90
6379;DHT22;3222;48.858;10.128;2022-08-30T13:43:30;24.00;99.90
6379;DHT22;3222;48.858;10.128;2022-08-30T13:45:56;24.10;99.90
6379;DHT22;3222;48.858;10.128;2022-08-30T13:48:23;24.20;99.90
6379;DHT22;3222;48.858;10.128;2022-08-30T13:50:52;24.20;99.90
6379;DHT22;3222;48.858;10.128;2022-08-30T13:53:19;24.20;99.90
6379;DHT22;3222;48.858;10.128;2022-08-30T13:55:45;24.30;99.90
6379;DHT22;3222;48.858;10.128;2022-08-30T13:58:11;24.30;99.90
6379;DHT22;3222;48.858;10.128;2022-08-30T14:00:37;24.30;99.90
6379;DHT22;3222;48.858;10.128;2022-08-30T14:03:02;24.20;99.90
6379;DHT22;3222;48.858;10.128;2022-08-30T14:05:31;24.20;99.90
6379;DHT22;3222;48.858;10.128;2022-08-30T14:07:58;24.20;99.90
6379;DHT22;3222;48.858;10.128;2022-08-30T14:10:29;24.10;99.90
6379;DHT22;3222;48.858;10.128;2022-08-30T14:12:55;24.20;99.90
6379;DHT22;3222;48.858;10.128;2022-08-30T14:15:23;24.10;99.90
6379;DHT22;3222;48.858;10.128;2022-08-30T14:17:49;23.90;99.90
6379;DHT22;3222;48.858;10.128;2022-08-30T14:20:15;23.90;99.90
6379;DHT22;3222;48.858;10.128;2022-08-30T14:22:41;23.80;99.90
6379;DHT22;3222;48.858;10.128;2022-08-30T14:25:07;23.80;99.90
6379;DHT22;3222;48.858;10.128;2022-08-30T14:27:33;23.90;99.90
6379;DHT22;3222;48.858;10.128;2022-08-30T14:29:58;24.00;99.90
6379;DHT22;3222;48.858;10.128;2022-08-30T14:32:24;24.10;99.90
6379;DHT22;3222;48.858;10.128;2022-08-30T14:34:51;24.30;99.90
6379;DHT22;3222;48.858;10.128;2022-08-30T14:37:17;24.40;99.90
6379;DHT22;3222;48.858;10.128;2022-08-30T14:39:43;24.50;99.90
6379;DHT22;3222;48.858;10.128;2022-08-30T14:42:09;24.50;99.90
6379;DHT22;3222;48.858;10.128;2022-08-30T14:44:36;24.50;99.90
6379;DHT22;3222;48.858;10.128;2022-08-30T14:47:03;24.60;99.90
6379;DHT22;3222;48.858;10.128;2022-08-30T14:49:29;24.60;99.90
6379;DHT22;3222;48.858;10.128;2022-08-30T14:51:55;24.60;99.90
6379;DHT22;3222;48.858;10.128;2022-08-30T14:54:23;24.50;99.90
6379;DHT22;3222;48.858;10.128;2022-08-30T14:56:49;24.40;99.70
6379;DHT22;3222;48.858;10.128;2022-08-30T14:59:15;24.30;99.80
6379;DHT22;3222;48.858;10.128;2022-08-30T15:01:43;24.20;99.90
6379;DHT22;3222;48.858;10.128;2022-08-30T15:04:10;24.20;99.90
6379;DHT22;3222;48.858;10.128;2022-08-30T15:06:37;24.20;99.30
6379;DHT22;3222;48.858;10.128;2022-08-30T15:09:05;24.20;99.90
6379;DHT22;3222;48.858;10.128;2022-08-30T15:11:31;24.10;99.90
6379;DHT22;3222;48.858;10.128;2022-08-30T15:13:57;24.20;99.90
6379;DHT22;3222;48.858;10.128;2022-08-30T15:16:29;24.00;99.90
6379;DHT22;3222;48.858;10.128;2022-08-30T15:18:57;24.10;99.90
6379;DHT22;3222;48.858;10.128;2022-08-30T15:21:25;24.10;99.90
6379;DHT22;3222;48.858;10.128;2022-08-30T15:23:52;24.00;99.90
6379;DHT22;3222;48.858;10.128;2022-08-30T15:26:18;24.10;99.90
6379;DHT22;3222;48.858;10.128;2022-08-30T15:28:43;24.00;99.90
6379;DHT22;3222;48.858;10.128;2022-08-30T15:31:09;24.10;99.90
6379;DHT22;3222;48.858;10.128;2022-08-30T15:33:36;24.00;99.90
6379;DHT22;3222;48.858;10.128;2022-08-30T15:36:03;24.10;99.90
6379;DHT22;3222;48.858;10.128;2022-08-30T15:38:29;24.10;99.90
6379;DHT22;3222;48.858;10.128;2022-08-30T15:40:56;24.10;99.90
6379;DHT22;3222;48.858;10.128;2022-08-30T15:43:26;24.00;99.90
6379;DHT22;3222;48.858;10.128;2022-08-30T15:45:53;24.00;99.90
6379;DHT22;3222;48.858;10.128;2022-08-30T15:48:19;24.00;99.90
6379;DHT22;3222;48.858;10.128;2022-08-30T15:50:45;24.00;99.90
6379;DHT22;3222;48.858;10.128;2022-08-30T15:53:10;23.90;99.90
6379;DHT22;3222;48.858;10.128;2022-08-30T15:55:36;24.00;99.90
6379;DHT22;3222;48.858;10.128;2022-08-30T15:58:02;23.80;99.90
6379;DHT22;3222;48.858;10.128;2022-08-30T16:00:27;23.70;99.90
6379;DHT22;3222;48.858;10.128;2022-08-30T16:02:53;23.70;99.90
6379;DHT22;3222;48.858;10.128;2022-08-30T16:05:19;23.60;99.90
6379;DHT22;3222;48.858;10.128;2022-08-30T16:07:49;23.60;99.80
6379;DHT22;3222;48.858;10.128;2022-08-30T16:10:15;23.70;99.90
6379;DHT22;3222;48.858;10.128;2022-08-30T16:12:40;23.60;99.90
6379;DHT22;3222;48.858;10.128;2022-08-30T16:15:07;23.60;99.90
6379;DHT22;3222;48.858;10.128;2022-08-30T16:17:33;23.50;99.90
6379;DHT22;3222;48.858;10.128;2022-08-30T16:19:58;23.70;99.90
6379;DHT22;3222;48.858;10.128;2022-08-30T16:22:24;23.80;99.90
6379;DHT22;3222;48.858;10.128;2022-08-30T16:24:50;23.70;99.90
6379;DHT22;3222;48.858;10.128;2022-08-30T16:27:16;23.80;99.10
6379;DHT22;3222;48.858;10.128;2022-08-30T16:29:42;23.80;99.60
6379;DHT22;3222;48.858;10.128;2022-08-30T16:32:08;23.90;99.50
6379;DHT22;3222;48.858;10.128;2022-08-30T16:34:33;23.80;99.70
6379;DHT22;3222;48.858;10.128;2022-08-30T16:36:59;23.90;99.20
6379;DHT22;3222;48.858;10.128;2022-08-30T16:39:25;23.80;99.50
6379;DHT22;3222;48.858;10.128;2022-08-30T16:41:50;23.80;99.40
6379;DHT22;3222;48.858;10.128;2022-08-30T16:44:16;23.70;98.80
6379;DHT22;3222;48.858;10.128;2022-08-30T16:46:42;23.60;99.30
6379;DHT22;3222;48.858;10.128;2022-08-30T16:49:08;23.50;99.20
6379;DHT22;3222;48.858;10.128;2022-08-30T16:51:34;23.50;98.90
6379;DHT22;3222;48.858;10.128;2022-08-30T16:54:03;23.50;98.80
6379;DHT22;3222;48.858;10.128;2022-08-30T16:56:31;23.50;98.90
6379;DHT22;3222;48.858;10.128;2022-08-30T16:58:58;23.40;98.10
6379;DHT22;3222;48.858;10.128;2022-08-30T17:01:24;23.40;98.50
6379;DHT22;3222;48.858;10.128;2022-08-30T17:03:50;23.30;98.70
6379;DHT22;3222;48.858;10.128;2022-08-30T17:06:16;23.30;98.70
6379;DHT22;3222;48.858;10.128;2022-08-30T17:08:42;23.20;98.60
6379;DHT22;3222;48.858;10.128;2022-08-30T17:11:12;23.20;98.80
6379;DHT22;3222;48.858;10.128;2022-08-30T17:13:39;23.20;98.40